sensor_id;sensor_type;location;lat;lon;timestamp;temperature;humidity
56771;DHT22;42641;59.794;17.616;2023-10-13T00:01:23;6.60;99.90
56771;DHT22;42641;59.794;17.616;2023-10-13T00:03:50;6.50;99.90
56771;DHT22;42641;59.794;17.616;2023-10-13T00:06:20;6.50;99.90
56771;DHT22;42641;59.794;17.616;2023-10-13T00:08:46;6.50;99.90
56771;DHT22;42641;59.794;17.616;2023-10-13T00:11:14;6.50;99.90
56771;DHT22;42641;59.794;17.616;2023-10-13T00:13:41;6.50;99.90
56771;DHT22;42641;59.794;17.616;2023-10-13T00:16:17;6.50;99.90
56771;DHT22;42641;59.794;17.616;2023-10-13T00:18:48;6.40;99.90
56771;DHT22;42641;59.794;17.616;2023-10-13T00:21:16;6.50;99.90
56771;DHT22;42641;59.794;17.616;2023-10-13T00:23:57;6.50;99.90
56771;DHT22;42641;59.794;17.616;2023-10-13T00:26:28;6.40;99.90
56771;DHT22;42641;59.794;17.616;2023-10-13T00:28:59;6.40;99.90
56771;DHT22;42641;59.794;17.616;2023-10-13T00:31:37;6.30;99.90
56771;DHT22;42641;59.794;17.616;2023-10-13T00:34:06;6.20;99.90
56771;DHT22;42641;59.794;17.616;2023-10-13T00:36:45;6.20;99.90
56771;DHT22;42641;59.794;17.616;2023-10-13T00:39:35;6.20;99.90
56771;DHT22;42641;59.794;17.616;2023-10-13T00:42:03;6.30;99.90
56771;DHT22;42641;59.794;17.616;2023-10-13T00:44:44;6.30;99.90
56771;DHT22;42641;59.794;17.616;2023-10-13T00:47:18;6.40;99.90
56771;DHT22;42641;59.794;17.616;2023-10-13T00:50:16;6.40;99.90
56771;DHT22;42641;59.794;17.616;2023-10-13T00:52:45;6.40;99.90
56771;DHT22;42641;59.794;17.616;2023-10-13T00:55:18;6.30;99.90
56771;DHT22;42641;59.794;17.616;2023-10-13T00:57:52;6.30;99.90
56771;DHT22;42641;59.794;17.616;2023-10-13T01:00:22;6.30;99.90
56771;DHT22;42641;59.794;17.616;2023-10-13T01:02:55;6.20;99.90
56771;DHT22;42641;59.794;17.616;2023-10-13T01:05:25;6.20;99.90
56771;DHT22;42641;59.794;17.616;2023-10-13T01:07:52;6.20;99.90
56771;DHT22;42641;59.794;17.616;2023-10-13T01:10:22;6.10;99.90
56771;DHT22;42641;59.794;17.616;2023-10-13T01:12:58;6.10;99.90
56771;DHT22;42641;59.794;17.616;2023-10-13T01:15:29;6.00;99.90
56771;DHT22;42641;59.794;17.616;2023-10-13T01:18:07;6.10;99.90
56771;DHT22;42641;59.794;17.616;2023-10-13T01:20:40;6.10;99.90
56771;DHT22;42641;59.794;17.616;2023-10-13T01:23:12;6.10;99.90
56771;DHT22;42641;59.794;17.616;2023-10-13T01:25:45;6.10;99.90
56771;DHT22;42641;59.794;17.616;2023-10-13T01:28:12;6.10;99.90
56771;DHT22;42641;59.794;17.616;2023-10-13T01:30:45;6.10;99.90
56771;DHT22;42641;59.794;17.616;2023-10-13T01:33:18;6.10;99.90
56771;DHT22;42641;59.794;17.616;2023-10-13T01:35:53;6.10;99.90
56771;DHT22;42641;59.794;17.616;2023-10-13T01:38:21;6.10;99.90
56771;DHT22;42641;59.794;17.616;2023-10-13T01:40:47;6.10;99.90
56771;DHT22;42641;59.794;17.616;2023-10-13T01:43:18;6.10;99.90
56771;DHT22;42641;59.794;17.616;2023-10-13T01:45:45;6.10;99.90
56771;DHT22;42641;59.794;17.616;2023-10-13T01:48:16;6.10;99.90
56771;DHT22;42641;59.794;17.616;2023-10-13T01:50:47;6.00;99.90
56771;DHT22;42641;59.794;17.616;2023-10-13T01:53:14;6.10;99.90
56771;DHT22;42641;59.794;17.616;2023-10-13T01:55:44;6.10;99.90
56771;DHT22;42641;59.794;17.616;2023-10-13T01:58:11;6.10;99.90
56771;DHT22;42641;59.794;17.616;2023-10-13T02:00:46;6.20;99.90
56771;DHT22;42641;59.794;17.616;2023-10-13T02:03:15;6.20;99.90
56771;DHT22;42641;59.794;17.616;2023-10-13T02:05:46;6.20;99.90
56771;DHT22;42641;59.794;17.616;2023-10-13T02:08:14;6.20;99.90
56771;DHT22;42641;59.794;17.616;2023-10-13T02:10:45;6.20;99.90
56771;DHT22;42641;59.794;17.616;2023-10-13T02:13:13;6.20;99.90
56771;DHT22;42641;59.794;17.616;2023-10-13T02:15:45;6.20;99.90
56771;DHT22;42641;59.794;17.616;2023-10-13T02:18:20;6.20;99.90
56771;DHT22;42641;59.794;17.616;2023-10-13T02:21:12;6.20;99.90
56771;DHT22;42641;59.794;17.616;2023-10-13T02:23:40;6.10;99.90
56771;DHT22;42641;59.794;17.616;2023-10-13T02:26:26;6.10;99.90
56771;DHT22;42641;59.794;17.616;2023-10-13T02:29:05;6.10;99.90
56771;DHT22;42641;59.794;17.616;2023-10-13T02:31:40;6.10;99.90
56771;DHT22;42641;59.794;17.616;2023-10-13T02:37:05;6.00;99.90
56771;DHT22;42641;59.794;17.616;2023-10-13T02:39:32;6.00;99.90
56771;DHT22;42641;59.794;17.616;2023-10-13T02:42:02;6.00;99.90
56771;DHT22;42641;59.794;17.616;2023-10-13T02:44:33;5.90;99.90
56771;DHT22;42641;59.794;17.616;2023-10-13T02:47:03;5.90;99.90
56771;DHT22;42641;59.794;17.616;2023-10-13T02:49:40;5.90;99.90
56771;DHT22;42641;59.794;17.616;2023-10-13T02:52:12;5.90;99.90
56771;DHT22;42641;59.794;17.616;2023-10-13T02:54:42;5.90;99.90
56771;DHT22;42641;59.794;17.616;2023-10-13T02:57:13;5.90;99.90
56771;DHT22;42641;59.794;17.616;2023-10-13T02:59:42;5.80;99.90
56771;DHT22;42641;59.794;17.616;2023-10-13T03:02:23;5.80;99.90
56771;DHT22;42641;59.794;17.616;2023-10-13T03:04:58;5.70;99.90
56771;DHT22;42641;59.794;17.616;2023-10-13T03:07:26;5.80;99.90
56771;DHT22;42641;59.794;17.616;2023-10-13T03:09:58;5.90;99.90
56771;DHT22;42641;59.794;17.616;2023-10-13T03:12:27;5.90;99.90
56771;DHT22;42641;59.794;17.616;2023-10-13T03:14:59;5.90;99.90
56771;DHT22;42641;59.794;17.616;2023-10-13T03:17:45;5.90;99.90
56771;DHT22;42641;59.794;17.616;2023-10-13T03:20:13;5.90;99.90
56771;DHT22;42641;59.794;17.616;2023-10-13T03:22:48;5.90;99.90
56771;DHT22;42641;59.794;17.616;2023-10-13T03:25:18;5.90;99.90
56771;DHT22;42641;59.794;17.616;2023-10-13T03:28:08;5.90;99.90
56771;DHT22;42641;59.794;17.616;2023-10-13T03:30:39;5.70;99.90
56771;DHT22;42641;59.794;17.616;2023-10-13T03:33:09;5.70;99.90
56771;DHT22;42641;59.794;17.616;2023-10-13T03:35:39;5.70;99.90
56771;DHT22;42641;59.794;17.616;2023-10-13T03:38:08;5.70;99.90
56771;DHT22;42641;59.794;17.616;2023-10-13T03:40:44;5.80;99.90
56771;DHT22;42641;59.794;17.616;2023-10-13T03:43:22;5.70;99.90
56771;DHT22;42641;59.794;17.616;2023-10-13T03:45:55;5.70;99.90
56771;DHT22;42641;59.794;17.616;2023-10-13T03:48:34;5.70;99.90
56771;DHT22;42641;59.794;17.616;2023-10-13T03:51:17;5.60;99.90
56771;DHT22;42641;59.794;17.616;2023-10-13T03:53:44;5.60;99.90
56771;DHT22;42641;59.794;17.616;2023-10-13T03:56:21;5.70;99.90
56771;DHT22;42641;59.794;17.616;2023-10-13T03:58:55;5.70;99.90
56771;DHT22;42641;59.794;17.616;2023-10-13T04:01:31;5.70;99.90
56771;DHT22;42641;59.794;17.616;2023-10-13T04:03:58;5.70;99.90
56771;DHT22;42641;59.794;17.616;2023-10-13T04:06:38;5.70;99.90
56771;DHT22;42641;59.794;17.616;2023-10-13T04:09:32;5.60;99.90
56771;DHT22;42641;59.794;17.616;2023-10-13T04:12:03;5.50;99.90
56771;DHT22;42641;59.794;17.616;2023-10-13T04:14:32;5.50;99.90
56771;DHT22;42641;59.794;17.616;2023-10-13T04:17:18;5.40;99.90
56771;DHT22;42641;59.794;17.616;2023-10-13T04:19:55;5.30;99.90
56771;DHT22;42641;59.794;17.616;2023-10-13T04:22:42;5.30;99.90
56771;DHT22;42641;59.794;17.616;2023-10-13T04:25:18;5.20;99.90
56771;DHT22;42641;59.794;17.616;2023-10-13T04:28:08;5.20;99.90
56771;DHT22;42641;59.794;17.616;2023-10-13T04:30:44;5.20;99.90
56771;DHT22;42641;59.794;17.616;2023-10-13T04:39:01;5.30;99.90
56771;DHT22;42641;59.794;17.616;2023-10-13T04:41:31;5.30;99.90
56771;DHT22;42641;59.794;17.616;2023-10-13T04:44:06;5.30;99.90
56771;DHT22;42641;59.794;17.616;2023-10-13T04:46:57;5.30;99.90
56771;DHT22;42641;59.794;17.616;2023-10-13T04:49:29;5.20;99.90
56771;DHT22;42641;59.794;17.616;2023-10-13T04:52:03;5.20;99.90
56771;DHT22;42641;59.794;17.616;2023-10-13T04:54:33;5.20;99.90
56771;DHT22;42641;59.794;17.616;2023-10-13T04:57:21;5.20;99.90
56771;DHT22;42641;59.794;17.616;2023-10-13T05:00:07;5.20;99.90
56771;DHT22;42641;59.794;17.616;2023-10-13T05:07:55;5.20;99.90
56771;DHT22;42641;59.794;17.616;2023-10-13T05:10:40;5.20;99.90
56771;DHT22;42641;59.794;17.616;2023-10-13T05:13:25;5.30;99.90
56771;DHT22;42641;59.794;17.616;2023-10-13T05:16:10;5.30;99.90
56771;DHT22;42641;59.794;17.616;2023-10-13T05:18:55;5.30;99.90
56771;DHT22;42641;59.794;17.616;2023-10-13T05:21:40;5.30;99.90
56771;DHT22;42641;59.794;17.616;2023-10-13T05:24:25;5.30;99.90
56771;DHT22;42641;59.794;17.616;2023-10-13T05:27:10;5.30;99.90
56771;DHT22;42641;59.794;17.616;2023-10-13T05:29:55;5.30;99.90
56771;DHT22;42641;59.794;17.616;2023-10-13T05:32:40;5.40;99.90
56771;DHT22;42641;59.794;17.616;2023-10-13T05:35:25;5.40;99.90
56771;DHT22;42641;59.794;17.616;2023-10-13T05:38:10;5.40;99.90
56771;DHT22;42641;59.794;17.616;2023-10-13T05:41:01;5.40;99.90
56771;DHT22;42641;59.794;17.616;2023-10-13T05:43:46;5.40;99.90
56771;DHT22;42641;59.794;17.616;2023-10-13T05:46:32;5.40;99.90
56771;DHT22;42641;59.794;17.616;2023-10-13T05:49:08;5.40;99.90
56771;DHT22;42641;59.794;17.616;2023-10-13T05:51:38;5.30;99.90
56771;DHT22;42641;59.794;17.616;2023-10-13T05:54:43;5.30;99.90
56771;DHT22;42641;59.794;17.616;2023-10-13T05:57:29;5.30;99.90
56771;DHT22;42641;59.794;17.616;2023-10-13T06:00:21;5.30;99.90
56771;DHT22;42641;59.794;17.616;2023-10-13T06:12:15;5.30;99.90
56771;DHT22;42641;59.794;17.616;2023-10-13T06:21:06;5.40;99.90
56771;DHT22;42641;59.794;17.616;2023-10-13T06:32:39;5.80;99.90
56771;DHT22;42641;59.794;17.616;2023-10-13T06:35:06;5.90;99.90
56771;DHT22;42641;59.794;17.616;2023-10-13T06:37:45;6.00;99.90
56771;DHT22;42641;59.794;17.616;2023-10-13T06:40:13;6.20;99.90
56771;DHT22;42641;59.794;17.616;2023-10-13T06:42:54;6.40;99.90
56771;DHT22;42641;59.794;17.616;2023-10-13T06:48:45;6.70;99.90
56771;DHT22;42641;59.794;17.616;2023-10-13T06:51:12;6.80;99.90
56771;DHT22;42641;59.794;17.616;2023-10-13T06:54:05;7.00;99.90
56771;DHT22;42641;59.794;17.616;2023-10-13T06:56:36;7.20;99.90
56771;DHT22;42641;59.794;17.616;2023-10-13T06:59:05;7.40;99.90
56771;DHT22;42641;59.794;17.616;2023-10-13T07:01:34;7.50;99.90
56771;DHT22;42641;59.794;17.616;2023-10-13T07:04:07;7.70;99.90
56771;DHT22;42641;59.794;17.616;2023-10-13T07:06:42;7.80;99.90
56771;DHT22;42641;59.794;17.616;2023-10-13T07:09:15;7.70;99.90
56771;DHT22;42641;59.794;17.616;2023-10-13T07:12:03;7.60;99.90
56771;DHT22;42641;59.794;17.616;2023-10-13T07:14:33;7.60;99.90
56771;DHT22;42641;59.794;17.616;2023-10-13T07:17:04;7.60;99.90
56771;DHT22;42641;59.794;17.616;2023-10-13T07:19:32;7.60;99.90
56771;DHT22;42641;59.794;17.616;2023-10-13T07:22:00;7.70;99.90
56771;DHT22;42641;59.794;17.616;2023-10-13T07:24:48;7.80;99.90
56771;DHT22;42641;59.794;17.616;2023-10-13T07:27:22;8.00;99.90
56771;DHT22;42641;59.794;17.616;2023-10-13T07:29:55;8.10;99.90
56771;DHT22;42641;59.794;17.616;2023-10-13T07:32:43;8.20;99.90
56771;DHT22;42641;59.794;17.616;2023-10-13T07:35:18;8.20;99.90
56771;DHT22;42641;59.794;17.616;2023-10-13T07:37:49;8.30;99.90
56771;DHT22;42641;59.794;17.616;2023-10-13T07:40:18;8.40;99.90
56771;DHT22;42641;59.794;17.616;2023-10-13T07:42:50;8.40;99.90
56771;DHT22;42641;59.794;17.616;2023-10-13T07:51:09;8.50;99.90
56771;DHT22;42641;59.794;17.616;2023-10-13T07:56:44;8.50;99.90
56771;DHT22;42641;59.794;17.616;2023-10-13T07:59:12;8.50;99.90
56771;DHT22;42641;59.794;17.616;2023-10-13T08:01:39;8.50;99.90
56771;DHT22;42641;59.794;17.616;2023-10-13T08:04:09;8.50;99.90
56771;DHT22;42641;59.794;17.616;2023-10-13T08:09:43;8.50;99.90
56771;DHT22;42641;59.794;17.616;2023-10-13T08:15:20;8.50;99.90
56771;DHT22;42641;59.794;17.616;2023-10-13T08:17:59;8.40;99.90
56771;DHT22;42641;59.794;17.616;2023-10-13T08:20:30;8.40;99.90
56771;DHT22;42641;59.794;17.616;2023-10-13T08:23:04;8.50;99.90
56771;DHT22;42641;59.794;17.616;2023-10-13T08:28:42;8.50;99.90
56771;DHT22;42641;59.794;17.616;2023-10-13T08:31:15;8.60;99.90
56771;DHT22;42641;59.794;17.616;2023-10-13T08:33:48;8.50;99.90
56771;DHT22;42641;59.794;17.616;2023-10-13T08:36:15;8.60;99.90
56771;DHT22;42641;59.794;17.616;2023-10-13T08:38:54;8.60;99.90
56771;DHT22;42641;59.794;17.616;2023-10-13T08:41:23;8.70;99.90
56771;DHT22;42641;59.794;17.616;2023-10-13T08:43:52;8.70;99.90
56771;DHT22;42641;59.794;17.616;2023-10-13T08:46:30;8.80;99.90
56771;DHT22;42641;59.794;17.616;2023-10-13T08:49:06;9.00;99.90
56771;DHT22;42641;59.794;17.616;2023-10-13T08:51:44;9.00;99.90
56771;DHT22;42641;59.794;17.616;2023-10-13T08:54:15;9.10;99.90
56771;DHT22;42641;59.794;17.616;2023-10-13T08:56:48;9.30;99.90
56771;DHT22;42641;59.794;17.616;2023-10-13T08:59:22;9.40;99.90
56771;DHT22;42641;59.794;17.616;2023-10-13T09:02:14;9.50;99.90
56771;DHT22;42641;59.794;17.616;2023-10-13T09:04:44;9.60;99.90
56771;DHT22;42641;59.794;17.616;2023-10-13T09:07:11;9.70;99.90
56771;DHT22;42641;59.794;17.616;2023-10-13T09:09:51;9.70;99.90
56771;DHT22;42641;59.794;17.616;2023-10-13T09:12:20;9.70;99.90
56771;DHT22;42641;59.794;17.616;2023-10-13T09:14:53;9.80;99.90
56771;DHT22;42641;59.794;17.616;2023-10-13T09:17:29;9.90;99.90
56771;DHT22;42641;59.794;17.616;2023-10-13T09:20:08;9.90;99.90
56771;DHT22;42641;59.794;17.616;2023-10-13T09:22:54;10.00;99.90
56771;DHT22;42641;59.794;17.616;2023-10-13T09:25:31;10.10;99.90
56771;DHT22;42641;59.794;17.616;2023-10-13T09:28:03;10.10;99.90
56771;DHT22;42641;59.794;17.616;2023-10-13T09:30:46;10.20;99.90
56771;DHT22;42641;59.794;17.616;2023-10-13T09:33:12;10.20;99.90
56771;DHT22;42641;59.794;17.616;2023-10-13T09:35:43;10.30;99.90
56771;DHT22;42641;59.794;17.616;2023-10-13T09:38:16;10.30;99.90
56771;DHT22;42641;59.794;17.616;2023-10-13T09:40:43;10.40;99.90
56771;DHT22;42641;59.794;17.616;2023-10-13T09:43:19;10.40;99.90
56771;DHT22;42641;59.794;17.616;2023-10-13T09:45:49;10.40;99.90
56771;DHT22;42641;59.794;17.616;2023-10-13T09:48:36;10.50;99.90
56771;DHT22;42641;59.794;17.616;2023-10-13T09:51:04;10.60;99.90
56771;DHT22;42641;59.794;17.616;2023-10-13T09:53:37;10.70;99.90
56771;DHT22;42641;59.794;17.616;2023-10-13T09:56:18;10.80;99.90
56771;DHT22;42641;59.794;17.616;2023-10-13T09:58:58;10.80;99.90
56771;DHT22;42641;59.794;17.616;2023-10-13T10:01:30;10.90;99.90
56771;DHT22;42641;59.794;17.616;2023-10-13T10:04:09;11.00;99.90
56771;DHT22;42641;59.794;17.616;2023-10-13T10:06:37;11.10;99.90
56771;DHT22;42641;59.794;17.616;2023-10-13T10:09:12;11.10;99.90
56771;DHT22;42641;59.794;17.616;2023-10-13T10:17:42;11.60;99.90
56771;DHT22;42641;59.794;17.616;2023-10-13T10:20:10;11.60;99.90
56771;DHT22;42641;59.794;17.616;2023-10-13T10:22:59;11.60;99.90
56771;DHT22;42641;59.794;17.616;2023-10-13T10:25:33;11.80;99.90
56771;DHT22;42641;59.794;17.616;2023-10-13T10:28:02;12.00;99.90
56771;DHT22;42641;59.794;17.616;2023-10-13T10:30:37;12.10;99.90
56771;DHT22;42641;59.794;17.616;2023-10-13T10:33:09;12.20;99.90
56771;DHT22;42641;59.794;17.616;2023-10-13T10:35:44;12.30;99.90
56771;DHT22;42641;59.794;17.616;2023-10-13T10:38:11;12.30;99.90
56771;DHT22;42641;59.794;17.616;2023-10-13T10:41:03;12.40;99.90
56771;DHT22;42641;59.794;17.616;2023-10-13T10:46:27;12.50;99.90
56771;DHT22;42641;59.794;17.616;2023-10-13T10:48:56;12.70;99.90
56771;DHT22;42641;59.794;17.616;2023-10-13T10:51:28;12.80;99.90
56771;DHT22;42641;59.794;17.616;2023-10-13T10:53:58;13.00;99.90
56771;DHT22;42641;59.794;17.616;2023-10-13T10:56:38;13.00;99.90
56771;DHT22;42641;59.794;17.616;2023-10-13T10:59:05;13.00;99.90
56771;DHT22;42641;59.794;17.616;2023-10-13T11:01:45;13.20;99.90
56771;DHT22;42641;59.794;17.616;2023-10-13T11:04:17;13.50;99.90
56771;DHT22;42641;59.794;17.616;2023-10-13T11:06:55;13.80;99.90
56771;DHT22;42641;59.794;17.616;2023-10-13T11:09:29;14.20;99.90
56771;DHT22;42641;59.794;17.616;2023-10-13T11:14:32;14.80;99.90
56771;DHT22;42641;59.794;17.616;2023-10-13T11:16:59;14.90;99.90
56771;DHT22;42641;59.794;17.616;2023-10-13T11:19:52;14.70;99.90
56771;DHT22;42641;59.794;17.616;2023-10-13T11:22:21;14.60;99.90
56771;DHT22;42641;59.794;17.616;2023-10-13T11:25:04;14.50;99.90
56771;DHT22;42641;59.794;17.616;2023-10-13T11:27:41;14.40;99.90
56771;DHT22;42641;59.794;17.616;2023-10-13T11:30:22;14.40;99.90
56771;DHT22;42641;59.794;17.616;2023-10-13T11:33:05;14.50;99.90
56771;DHT22;42641;59.794;17.616;2023-10-13T11:35:38;14.60;99.90
56771;DHT22;42641;59.794;17.616;2023-10-13T11:38:21;14.70;99.90
56771;DHT22;42641;59.794;17.616;2023-10-13T11:40:59;14.80;99.90
56771;DHT22;42641;59.794;17.616;2023-10-13T11:43:36;14.90;99.90
56771;DHT22;42641;59.794;17.616;2023-10-13T11:46:13;14.90;99.90
56771;DHT22;42641;59.794;17.616;2023-10-13T11:48:43;14.80;99.90
56771;DHT22;42641;59.794;17.616;2023-10-13T11:51:14;14.60;99.90
56771;DHT22;42641;59.794;17.616;2023-10-13T11:53:44;14.50;99.90
56771;DHT22;42641;59.794;17.616;2023-10-13T11:56:21;14.30;99.90
56771;DHT22;42641;59.794;17.616;2023-10-13T11:58:48;14.20;99.90
56771;DHT22;42641;59.794;17.616;2023-10-13T12:01:15;14.10;99.90
56771;DHT22;42641;59.794;17.616;2023-10-13T12:03:46;14.10;99.90
56771;DHT22;42641;59.794;17.616;2023-10-13T12:06:33;13.80;99.90
56771;DHT22;42641;59.794;17.616;2023-10-13T12:09:07;13.70;99.90
56771;DHT22;42641;59.794;17.616;2023-10-13T12:11:46;13.60;99.90
56771;DHT22;42641;59.794;17.616;2023-10-13T12:14:15;13.60;99.90
56771;DHT22;42641;59.794;17.616;2023-10-13T12:17:16;13.50;99.90
56771;DHT22;42641;59.794;17.616;2023-10-13T12:19:54;13.40;99.90
56771;DHT22;42641;59.794;17.616;2023-10-13T12:22:21;13.30;99.90
56771;DHT22;42641;59.794;17.616;2023-10-13T12:25:05;13.30;99.90
56771;DHT22;42641;59.794;17.616;2023-10-13T12:27:53;13.40;99.90
56771;DHT22;42641;59.794;17.616;2023-10-13T12:30:24;13.60;99.90
56771;DHT22;42641;59.794;17.616;2023-10-13T12:33:15;13.70;99.90
56771;DHT22;42641;59.794;17.616;2023-10-13T12:36:00;13.80;99.90
56771;DHT22;42641;59.794;17.616;2023-10-13T12:38:34;13.70;99.90
56771;DHT22;42641;59.794;17.616;2023-10-13T12:41:19;13.70;99.90
56771;DHT22;42641;59.794;17.616;2023-10-13T12:44:05;13.60;99.90
56771;DHT22;42641;59.794;17.616;2023-10-13T12:46:51;13.40;99.90
56771;DHT22;42641;59.794;17.616;2023-10-13T12:49:37;13.30;99.90
56771;DHT22;42641;59.794;17.616;2023-10-13T12:52:09;13.20;99.90
56771;DHT22;42641;59.794;17.616;2023-10-13T12:54:43;13.30;99.90
56771;DHT22;42641;59.794;17.616;2023-10-13T12:57:16;13.20;99.90
56771;DHT22;42641;59.794;17.616;2023-10-13T12:59:43;13.20;99.90
56771;DHT22;42641;59.794;17.616;2023-10-13T13:02:09;13.10;99.90
56771;DHT22;42641;59.794;17.616;2023-10-13T13:04:42;13.00;99.90
56771;DHT22;42641;59.794;17.616;2023-10-13T13:07:11;12.90;99.90
56771;DHT22;42641;59.794;17.616;2023-10-13T13:09:41;12.80;99.90
56771;DHT22;42641;59.794;17.616;2023-10-13T13:12:07;12.80;99.90
56771;DHT22;42641;59.794;17.616;2023-10-13T13:14:34;12.70;99.90
56771;DHT22;42641;59.794;17.616;2023-10-13T13:17:01;12.70;99.90
56771;DHT22;42641;59.794;17.616;2023-10-13T13:19:37;12.70;99.90
56771;DHT22;42641;59.794;17.616;2023-10-13T13:22:07;12.70;99.90
56771;DHT22;42641;59.794;17.616;2023-10-13T13:24:44;12.70;99.90
56771;DHT22;42641;59.794;17.616;2023-10-13T13:27:15;12.70;99.90
56771;DHT22;42641;59.794;17.616;2023-10-13T13:29:44;12.70;99.90
56771;DHT22;42641;59.794;17.616;2023-10-13T13:32:11;12.70;99.90
56771;DHT22;42641;59.794;17.616;2023-10-13T13:34:54;12.70;99.90
56771;DHT22;42641;59.794;17.616;2023-10-13T13:37:29;12.60;99.90
56771;DHT22;42641;59.794;17.616;2023-10-13T13:39:56;12.50;99.90
56771;DHT22;42641;59.794;17.616;2023-10-13T13:42:22;12.50;99.90
56771;DHT22;42641;59.794;17.616;2023-10-13T13:44:49;12.50;99.90
56771;DHT22;42641;59.794;17.616;2023-10-13T13:47:15;12.50;99.90
56771;DHT22;42641;59.794;17.616;2023-10-13T13:49:43;12.40;99.90
56771;DHT22;42641;59.794;17.616;2023-10-13T13:52:17;12.30;99.90
56771;DHT22;42641;59.794;17.616;2023-10-13T13:54:48;12.30;99.90
56771;DHT22;42641;59.794;17.616;2023-10-13T13:57:14;12.20;99.90
56771;DHT22;42641;59.794;17.616;2023-10-13T13:59:41;12.20;99.90
56771;DHT22;42641;59.794;17.616;2023-10-13T14:02:11;12.10;99.90
56771;DHT22;42641;59.794;17.616;2023-10-13T14:04:47;12.10;99.90
56771;DHT22;42641;59.794;17.616;2023-10-13T14:07:20;12.00;99.90
56771;DHT22;42641;59.794;17.616;2023-10-13T14:09:49;12.00;99.90
56771;DHT22;42641;59.794;17.616;2023-10-13T14:12:19;12.00;99.90
56771;DHT22;42641;59.794;17.616;2023-10-13T14:14:56;12.00;99.90
56771;DHT22;42641;59.794;17.616;2023-10-13T14:17:23;12.00;99.90
56771;DHT22;42641;59.794;17.616;2023-10-13T14:19:56;11.90;99.90
56771;DHT22;42641;59.794;17.616;2023-10-13T14:22:24;11.90;99.90
56771;DHT22;42641;59.794;17.616;2023-10-13T14:24:51;11.80;99.90
56771;DHT22;42641;59.794;17.616;2023-10-13T14:27:21;11.80;99.90
56771;DHT22;42641;59.794;17.616;2023-10-13T14:29:52;11.80;99.90
56771;DHT22;42641;59.794;17.616;2023-10-13T14:32:19;11.70;99.90
56771;DHT22;42641;59.794;17.616;2023-10-13T14:34:51;11.70;99.90
56771;DHT22;42641;59.794;17.616;2023-10-13T14:37:21;11.70;99.90
56771;DHT22;42641;59.794;17.616;2023-10-13T14:39:55;11.60;99.90
56771;DHT22;42641;59.794;17.616;2023-10-13T14:42:27;11.60;99.90
56771;DHT22;42641;59.794;17.616;2023-10-13T14:44:54;11.60;99.90
56771;DHT22;42641;59.794;17.616;2023-10-13T14:47:24;11.60;99.90
56771;DHT22;42641;59.794;17.616;2023-10-13T14:49:54;11.60;99.90
56771;DHT22;42641;59.794;17.616;2023-10-13T14:52:22;11.50;99.90
56771;DHT22;42641;59.794;17.616;2023-10-13T14:54:49;11.50;99.90
56771;DHT22;42641;59.794;17.616;2023-10-13T14:57:22;11.50;99.90
56771;DHT22;42641;59.794;17.616;2023-10-13T14:59:52;11.50;99.90
56771;DHT22;42641;59.794;17.616;2023-10-13T15:02:19;11.50;99.90
56771;DHT22;42641;59.794;17.616;2023-10-13T15:04:49;11.50;99.90
56771;DHT22;42641;59.794;17.616;2023-10-13T15:07:16;11.50;99.90
56771;DHT22;42641;59.794;17.616;2023-10-13T15:09:44;11.50;99.90
56771;DHT22;42641;59.794;17.616;2023-10-13T15:12:11;11.40;99.90
56771;DHT22;42641;59.794;17.616;2023-10-13T15:14:38;11.30;99.90
56771;DHT22;42641;59.794;17.616;2023-10-13T15:17:05;11.30;99.90
56771;DHT22;42641;59.794;17.616;2023-10-13T15:19:32;11.30;99.90
56771;DHT22;42641;59.794;17.616;2023-10-13T15:22:05;11.30;99.90
56771;DHT22;42641;59.794;17.616;2023-10-13T15:24:33;11.30;99.90
56771;DHT22;42641;59.794;17.616;2023-10-13T15:27:09;11.20;99.90
56771;DHT22;42641;59.794;17.616;2023-10-13T15:29:36;11.20;99.90
56771;DHT22;42641;59.794;17.616;2023-10-13T15:32:05;11.20;99.90
56771;DHT22;42641;59.794;17.616;2023-10-13T15:34:51;11.20;99.90
56771;DHT22;42641;59.794;17.616;2023-10-13T15:37:19;11.20;99.90
56771;DHT22;42641;59.794;17.616;2023-10-13T15:39:47;11.20;99.90
56771;DHT22;42641;59.794;17.616;2023-10-13T15:42:14;11.20;99.90
56771;DHT22;42641;59.794;17.616;2023-10-13T15:44:40;11.10;99.90
56771;DHT22;42641;59.794;17.616;2023-10-13T15:47:09;11.10;99.90
56771;DHT22;42641;59.794;17.616;2023-10-13T15:49:38;11.00;99.90
56771;DHT22;42641;59.794;17.616;2023-10-13T15:52:11;11.00;99.90
56771;DHT22;42641;59.794;17.616;2023-10-13T15:54:38;10.90;99.90
56771;DHT22;42641;59.794;17.616;2023-10-13T15:57:08;11.00;99.90
56771;DHT22;42641;59.794;17.616;2023-10-13T15:59:42;11.00;99.90
56771;DHT22;42641;59.794;17.616;2023-10-13T16:02:12;10.90;99.90
56771;DHT22;42641;59.794;17.616;2023-10-13T16:04:38;10.90;99.90
56771;DHT22;42641;59.794;17.616;2023-10-13T16:07:05;10.90;99.90
56771;DHT22;42641;59.794;17.616;2023-10-13T16:09:31;10.90;99.90
56771;DHT22;42641;59.794;17.616;2023-10-13T16:12:00;10.80;99.90
56771;DHT22;42641;59.794;17.616;2023-10-13T16:14:26;10.80;99.90
56771;DHT22;42641;59.794;17.616;2023-10-13T16:16:53;10.60;99.90
56771;DHT22;42641;59.794;17.616;2023-10-13T16:19:20;10.50;99.90
56771;DHT22;42641;59.794;17.616;2023-10-13T16:21:51;10.30;99.90
56771;DHT22;42641;59.794;17.616;2023-10-13T16:24:18;10.20;99.90
56771;DHT22;42641;59.794;17.616;2023-10-13T16:26:49;10.10;99.90
56771;DHT22;42641;59.794;17.616;2023-10-13T16:29:16;10.00;99.90
56771;DHT22;42641;59.794;17.616;2023-10-13T16:31:43;9.90;99.90
56771;DHT22;42641;59.794;17.616;2023-10-13T16:34:17;9.80;99.90
56771;DHT22;42641;59.794;17.616;2023-10-13T16:36:47;9.80;99.90
56771;DHT22;42641;59.794;17.616;2023-10-13T16:39:15;9.70;99.90
56771;DHT22;42641;59.794;17.616;2023-10-13T16:41:42;9.70;99.90
56771;DHT22;42641;59.794;17.616;2023-10-13T16:44:11;9.60;99.90
56771;DHT22;42641;59.794;17.616;2023-10-13T16:46:41;9.60;99.90
56771;DHT22;42641;59.794;17.616;2023-10-13T16:49:08;9.50;99.90
56771;DHT22;42641;59.794;17.616;2023-10-13T16:51:35;9.40;99.90
56771;DHT22;42641;59.794;17.616;2023-10-13T16:54:03;9.40;99.90
56771;DHT22;42641;59.794;17.616;2023-10-13T16:56:29;9.30;99.90
56771;DHT22;42641;59.794;17.616;2023-10-13T16:58:56;9.20;99.90
56771;DHT22;42641;59.794;17.616;2023-10-13T17:01:23;9.20;99.90
56771;DHT22;42641;59.794;17.616;2023-10-13T17:03:49;9.20;99.90
56771;DHT22;42641;59.794;17.616;2023-10-13T17:06:16;9.20;99.90
56771;DHT22;42641;59.794;17.616;2023-10-13T17:08:43;9.10;99.90
56771;DHT22;42641;59.794;17.616;2023-10-13T17:11:13;9.10;99.90
56771;DHT22;42641;59.794;17.616;2023-10-13T17:13:44;9.00;99.90
56771;DHT22;42641;59.794;17.616;2023-10-13T17:16:17;9.00;99.90